createdAt,value
2023-03-10T00:01:36.951Z,5.60
2023-03-10T00:04:04.204Z,5.70
2023-03-10T00:06:34.833Z,5.60
2023-03-10T00:09:02.625Z,5.60
2023-03-10T00:11:29.807Z,5.60
2023-03-10T00:13:57.115Z,5.60
2023-03-10T00:16:29.753Z,5.60
2023-03-10T00:19:01.979Z,5.60
2023-03-10T00:21:31.555Z,5.60
2023-03-10T00:24:06.018Z,5.70
2023-03-10T00:26:45.906Z,5.70
2023-03-10T00:29:13.061Z,5.70
2023-03-10T00:31:40.346Z,5.70
2023-03-10T00:34:12.170Z,5.70
2023-03-10T00:36:40.540Z,5.70
2023-03-10T00:39:11.981Z,5.70
2023-03-10T00:41:39.367Z,5.70
2023-03-10T00:44:09.659Z,5.70
2023-03-10T00:46:38.945Z,5.60
2023-03-10T00:49:07.792Z,5.50
2023-03-10T00:51:36.477Z,5.50
2023-03-10T00:54:10.773Z,5.40
2023-03-10T00:56:38.448Z,5.40
2023-03-10T00:59:07.185Z,5.40
2023-03-10T01:01:40.842Z,5.30
2023-03-10T01:04:13.336Z,5.30
2023-03-10T01:06:40.997Z,5.40
2023-03-10T01:09:08.425Z,5.40
2023-03-10T01:11:37.313Z,5.50
2023-03-10T01:14:07.642Z,5.50
2023-03-10T01:16:35.312Z,5.50
2023-03-10T01:19:02.538Z,5.40
2023-03-10T01:21:33.773Z,5.40
2023-03-10T01:24:01.950Z,5.40
2023-03-10T01:26:30.457Z,5.40
2023-03-10T01:28:57.581Z,5.50
2023-03-10T01:31:24.997Z,5.50
2023-03-10T01:33:54.821Z,5.40
2023-03-10T01:36:26.730Z,5.40
2023-03-10T01:38:56.152Z,5.40
2023-03-10T01:41:23.824Z,5.30
2023-03-10T01:43:53.773Z,5.30
2023-03-10T01:46:34.879Z,5.20
2023-03-10T01:49:23.037Z,5.20
2023-03-10T01:52:04.027Z,5.10
2023-03-10T01:54:54.195Z,5.20
2023-03-10T01:57:27.080Z,5.30
2023-03-10T01:59:58.334Z,5.50
2023-03-10T02:02:27.690Z,5.60
2023-03-10T02:04:55.773Z,5.80
2023-03-10T02:07:27.790Z,5.90
2023-03-10T02:09:56.113Z,6.10
2023-03-10T02:12:23.602Z,6.40
2023-03-10T02:14:52.654Z,6.60
2023-03-10T02:17:23.402Z,6.70
2023-03-10T02:20:03.237Z,6.80
2023-03-10T02:22:31.555Z,6.90
2023-03-10T02:25:13.140Z,7.10
2023-03-10T02:27:41.535Z,7.20
2023-03-10T02:30:19.026Z,7.30
2023-03-10T02:32:50.816Z,7.40
2023-03-10T02:35:18.266Z,7.40
2023-03-10T02:37:56.520Z,7.40
2023-03-10T02:40:40.812Z,7.50
2023-03-10T02:43:20.820Z,7.60
2023-03-10T02:45:54.153Z,7.70
2023-03-10T02:48:28.684Z,7.70
2023-03-10T02:50:58.026Z,7.80
2023-03-10T02:53:27.719Z,7.80
2023-03-10T02:55:55.456Z,7.90
2023-03-10T02:58:25.078Z,7.90
2023-03-10T03:00:52.431Z,7.90
2023-03-10T03:03:21.832Z,7.80
2023-03-10T03:05:50.141Z,8.00
2023-03-10T03:08:18.672Z,8.00
2023-03-10T03:10:45.770Z,8.10
2023-03-10T03:13:13.080Z,8.20
2023-03-10T03:15:40.358Z,8.30
2023-03-10T03:18:08.599Z,8.40
2023-03-10T03:20:37.699Z,8.40
2023-03-10T03:23:06.303Z,8.40
2023-03-10T03:25:37.043Z,8.50
2023-03-10T03:28:06.080Z,8.60
2023-03-10T03:30:34.188Z,8.70
2023-03-10T03:33:03.650Z,8.80
2023-03-10T03:35:34.009Z,8.80
2023-03-10T03:38:02.645Z,8.90
2023-03-10T03:40:33.655Z,8.90
2023-03-10T03:43:01.931Z,9.00
2023-03-10T03:45:31.757Z,9.10
2023-03-10T03:48:00.384Z,9.00
2023-03-10T03:50:29.357Z,9.00
2023-03-10T03:53:03.505Z,9.00
2023-03-10T03:55:31.490Z,9.00
2023-03-10T03:57:59.331Z,9.00
2023-03-10T04:00:26.568Z,8.90
2023-03-10T04:03:01.502Z,8.90
2023-03-10T04:05:30.698Z,8.90
2023-03-10T04:07:58.506Z,8.80
2023-03-10T04:10:29.174Z,8.80
2023-03-10T04:12:57.407Z,8.80
2023-03-10T04:15:25.338Z,8.80
2023-03-10T04:17:52.941Z,8.80
2023-03-10T04:20:20.646Z,8.80
2023-03-10T04:22:50.489Z,8.80
2023-03-10T04:25:20.376Z,8.70
2023-03-10T04:27:48.145Z,8.70
2023-03-10T04:30:16.203Z,8.70
2023-03-10T04:32:49.170Z,8.80
2023-03-10T04:35:17.854Z,8.70
2023-03-10T04:37:45.036Z,8.80
2023-03-10T04:40:14.365Z,8.80
2023-03-10T04:42:42.521Z,8.90
2023-03-10T04:45:10.692Z,8.90
2023-03-10T04:47:39.892Z,8.90
2023-03-10T04:50:07.818Z,8.90
2023-03-10T04:52:35.541Z,8.90
2023-03-10T04:55:02.949Z,8.90
2023-03-10T04:57:30.026Z,8.90
2023-03-10T04:59:57.387Z,8.90
2023-03-10T05:06:53.989Z,8.90
2023-03-10T05:09:43.935Z,8.80
2023-03-10T05:12:11.329Z,8.80
2023-03-10T05:14:38.862Z,8.80
2023-03-10T05:17:07.291Z,8.70
2023-03-10T05:24:04.469Z,8.70
2023-03-10T05:26:34.622Z,8.70
2023-03-10T05:29:02.240Z,8.70
2023-03-10T05:31:38.771Z,8.70
2023-03-10T05:38:34.484Z,8.70
2023-03-10T05:41:02.222Z,8.80
2023-03-10T05:43:29.417Z,8.80
2023-03-10T05:45:58.317Z,8.80
2023-03-10T05:52:58.491Z,9.00
2023-03-10T05:55:28.756Z,9.10
2023-03-10T05:57:56.310Z,9.30
2023-03-10T06:00:24.515Z,9.30
2023-03-10T06:07:25.465Z,9.60
2023-03-10T06:09:54.335Z,9.70
2023-03-10T06:12:21.759Z,9.80
2023-03-10T06:14:48.835Z,9.80
2023-03-10T06:17:17.511Z,9.90
2023-03-10T06:24:11.064Z,10.20
2023-03-10T06:26:38.513Z,10.50
2023-03-10T06:29:06.352Z,11.00
2023-03-10T06:31:33.786Z,11.40
2023-03-10T06:38:32.547Z,12.70
2023-03-10T06:40:59.727Z,13.50
2023-03-10T06:43:26.973Z,13.70
2023-03-10T06:45:54.403Z,14.10
2023-03-10T06:52:48.656Z,15.30
2023-03-10T06:55:17.109Z,15.60
2023-03-10T06:57:44.112Z,15.80
2023-03-10T07:00:15.777Z,15.80
2023-03-10T07:02:43.539Z,15.70
2023-03-10T07:09:38.919Z,15.70
2023-03-10T07:12:06.381Z,15.60
2023-03-10T07:14:33.531Z,15.90
2023-03-10T07:17:00.901Z,16.40
2023-03-10T07:24:04.716Z,16.50
2023-03-10T07:26:31.875Z,17.20
2023-03-10T07:28:59.019Z,17.90
2023-03-10T07:31:26.267Z,18.50
2023-03-10T07:33:53.533Z,18.70
2023-03-10T07:36:21.237Z,18.70
2023-03-10T07:38:48.657Z,18.50
2023-03-10T07:41:18.588Z,18.50
2023-03-10T07:43:46.056Z,18.80
2023-03-10T07:46:15.249Z,19.40
2023-03-10T07:48:42.736Z,19.40
2023-03-10T07:55:38.882Z,20.20
2023-03-10T07:58:06.095Z,19.70
2023-03-10T08:00:33.390Z,19.70
2023-03-10T08:03:00.361Z,19.80
2023-03-10T08:10:05.689Z,19.80
2023-03-10T08:12:33.658Z,19.50
2023-03-10T08:15:00.901Z,19.60
2023-03-10T08:17:31.294Z,20.00
2023-03-10T08:24:25.588Z,21.30
2023-03-10T08:26:52.769Z,21.30
2023-03-10T08:29:21.197Z,20.80
2023-03-10T08:31:48.781Z,21.00
2023-03-10T08:38:46.002Z,20.40
2023-03-10T08:41:17.846Z,21.00
2023-03-10T08:43:48.826Z,20.80
2023-03-10T08:46:17.671Z,20.90
2023-03-10T08:48:44.932Z,20.80
2023-03-10T08:55:48.821Z,22.00
2023-03-10T08:58:17.035Z,21.40
2023-03-10T09:00:44.867Z,21.30
2023-03-10T09:03:14.419Z,21.00
2023-03-10T09:05:43.008Z,21.30
2023-03-10T09:08:10.545Z,21.50
2023-03-10T09:10:39.103Z,20.90
2023-03-10T09:13:13.706Z,19.90
2023-03-10T09:15:41.824Z,19.20
2023-03-10T09:18:10.640Z,18.80
2023-03-10T09:20:40.023Z,18.60
2023-03-10T09:23:09.070Z,18.70
2023-03-10T09:25:36.186Z,18.30
2023-03-10T09:28:03.557Z,18.20
2023-03-10T09:30:30.978Z,18.30
2023-03-10T09:32:58.622Z,18.10
2023-03-10T09:35:26.047Z,17.90
2023-03-10T09:37:53.078Z,17.80
2023-03-10T09:40:25.192Z,17.80
2023-03-10T09:43:01.875Z,18.00
2023-03-10T09:46:05.204Z,17.90
2023-03-10T09:48:42.590Z,18.00
2023-03-10T09:51:24.943Z,18.40
2023-03-10T09:54:01.159Z,18.50
2023-03-10T09:56:36.286Z,18.30
2023-03-10T09:59:17.287Z,18.40
2023-03-10T10:01:49.760Z,18.40
2023-03-10T10:04:42.066Z,18.20
2023-03-10T10:07:17.780Z,18.40
2023-03-10T10:10:02.689Z,18.60
2023-03-10T10:12:29.831Z,19.00
2023-03-10T10:15:14.661Z,19.60
2023-03-10T10:18:19.607Z,19.50
2023-03-10T10:21:52.480Z,19.70
2023-03-10T10:24:20.530Z,20.20
2023-03-10T10:26:47.709Z,20.60
2023-03-10T10:29:22.968Z,20.30
2023-03-10T10:32:04.374Z,19.40
2023-03-10T10:34:32.346Z,18.90
2023-03-10T10:37:00.641Z,18.20
2023-03-10T10:39:37.276Z,18.00
2023-03-10T10:42:24.765Z,18.10
2023-03-10T10:44:54.561Z,18.30
2023-03-10T10:47:31.300Z,18.60
2023-03-10T10:50:37.434Z,19.30
2023-03-10T10:53:13.831Z,19.70
2023-03-10T10:55:42.798Z,19.60
2023-03-10T10:58:33.694Z,19.70
2023-03-10T11:01:12.688Z,20.00
2023-03-10T11:03:46.269Z,20.10
2023-03-10T11:11:12.750Z,20.00
2023-03-10T11:13:47.015Z,19.80
2023-03-10T11:16:23.658Z,19.40
2023-03-10T11:18:56.163Z,19.20
2023-03-10T11:26:34.256Z,19.20
2023-03-10T11:29:10.884Z,18.50
2023-03-10T11:31:59.176Z,18.40
2023-03-10T11:34:32.252Z,18.10
2023-03-10T11:37:02.163Z,18.60
2023-03-10T11:40:15.158Z,18.50
2023-03-10T11:43:27.538Z,19.00
2023-03-10T11:45:57.056Z,19.20
2023-03-10T11:48:52.067Z,19.20
2023-03-10T11:55:30.963Z,19.30
2023-03-10T11:58:05.245Z,19.60
2023-03-10T12:00:40.763Z,19.40
2023-03-10T12:03:37.956Z,19.00
2023-03-10T12:06:12.527Z,18.80
2023-03-10T12:10:14.988Z,18.90
2023-03-10T12:12:45.369Z,19.10
2023-03-10T12:15:30.503Z,18.80
2023-03-10T12:17:58.004Z,18.60
2023-03-10T12:20:33.808Z,18.80
2023-03-10T12:27:26.725Z,18.70
2023-03-10T12:29:53.933Z,18.50
2023-03-10T12:32:42.134Z,18.40
2023-03-10T12:35:23.103Z,18.30
2023-03-10T12:37:50.971Z,18.30
2023-03-10T12:40:49.969Z,18.30
2023-03-10T12:43:38.965Z,18.20
2023-03-10T12:46:33.050Z,18.10
2023-03-10T12:49:13.318Z,18.10
2023-03-10T12:51:46.651Z,18.30
2023-03-10T12:54:58.897Z,18.30
2023-03-10T12:57:54.373Z,18.30
2023-03-10T13:00:48.274Z,18.10
2023-03-10T13:03:27.683Z,18.00
2023-03-10T13:06:20.925Z,17.90
2023-03-10T13:09:17.657Z,17.90
2023-03-10T13:12:04.287Z,17.80
2023-03-10T13:14:39.752Z,17.80
2023-03-10T13:17:09.720Z,17.80
2023-03-10T13:19:37.995Z,17.70
2023-03-10T13:22:06.999Z,17.70
2023-03-10T13:24:45.329Z,17.40
2023-03-10T13:27:17.170Z,17.10
2023-03-10T13:30:05.937Z,17.00
2023-03-10T13:32:34.070Z,16.90
2023-03-10T13:35:30.448Z,16.90
2023-03-10T13:39:00.605Z,16.90
2023-03-10T13:41:33.602Z,16.90
2023-03-10T13:44:22.542Z,16.80
2023-03-10T13:46:58.778Z,16.70
2023-03-10T13:49:34.659Z,16.80
2023-03-10T13:52:11.819Z,16.80
2023-03-10T13:54:42.004Z,16.80
2023-03-10T13:57:33.682Z,16.70
2023-03-10T14:00:03.083Z,16.80
2023-03-10T14:02:47.763Z,16.80
2023-03-10T14:05:36.928Z,16.90
2023-03-10T14:12:12.554Z,16.80
2023-03-10T14:14:41.866Z,16.70
2023-03-10T14:17:46.920Z,16.70
2023-03-10T14:20:28.026Z,16.70
2023-03-10T14:22:55.363Z,16.70
2023-03-10T14:25:24.004Z,16.70
2023-03-10T14:30:46.105Z,16.70
2023-03-10T14:33:26.834Z,16.70
2023-03-10T14:36:01.329Z,16.70
2023-03-10T14:43:10.394Z,16.60
2023-03-10T14:45:50.758Z,16.70
2023-03-10T14:48:37.957Z,16.70
2023-03-10T14:51:06.971Z,16.80
2023-03-10T14:58:24.447Z,16.70
2023-03-10T15:01:21.818Z,16.60
2023-03-10T15:03:49.439Z,16.50
2023-03-10T15:06:19.761Z,16.50
2023-03-10T15:08:46.934Z,16.40
2023-03-10T15:11:15.927Z,16.40
2023-03-10T15:13:44.679Z,16.40
2023-03-10T15:16:14.561Z,16.40
2023-03-10T15:18:41.966Z,16.40
2023-03-10T15:21:09.257Z,16.30
2023-03-10T15:23:36.361Z,16.40
2023-03-10T15:30:35.556Z,16.40
2023-03-10T15:33:03.071Z,16.20
2023-03-10T15:35:30.260Z,16.20
2023-03-10T15:38:01.263Z,16.10
2023-03-10T15:44:52.353Z,16.00
2023-03-10T15:47:19.681Z,16.00
2023-03-10T15:49:46.701Z,16.00
2023-03-10T15:52:14.180Z,15.80
2023-03-10T15:59:18.026Z,15.60
2023-03-10T16:01:45.177Z,15.60
2023-03-10T16:04:12.349Z,15.50
2023-03-10T16:06:39.478Z,15.40
2023-03-10T16:09:08.969Z,15.20
2023-03-10T16:13:44.059Z,15.20
2023-03-10T16:16:13.029Z,15.10
2023-03-10T16:18:40.334Z,15.00
2023-03-10T16:21:07.597Z,14.90
2023-03-10T16:23:34.844Z,14.80
2023-03-10T16:30:29.657Z,14.60
2023-03-10T16:33:01.019Z,14.50
2023-03-10T16:35:36.272Z,14.50
2023-03-10T16:38:03.933Z,14.40
2023-03-10T16:45:06.654Z,14.30
2023-03-10T16:47:39.483Z,14.20
2023-03-10T16:50:16.284Z,14.20
2023-03-10T16:52:43.601Z,14.20
2023-03-10T16:59:47.655Z,14.20
2023-03-10T17:02:22.620Z,14.20
2023-03-10T17:04:59.456Z,14.20
2023-03-10T17:07:27.221Z,14.20
2023-03-10T17:09:54.576Z,14.20
2023-03-10T17:12:23.314Z,14.10
2023-03-10T17:14:55.669Z,14.10
2023-03-10T17:17:23.336Z,13.90
2023-03-10T17:19:51.862Z,13.70
2023-03-10T17:22:19.006Z,13.60
2023-03-10T17:24:46.609Z,13.30
2023-03-10T17:31:41.639Z,12.70
2023-03-10T17:34:12.899Z,12.30
2023-03-10T17:36:40.470Z,12.10
2023-03-10T17:39:08.086Z,11.90
2023-03-10T17:46:05.899Z,11.80
2023-03-10T17:48:36.645Z,11.80
2023-03-10T17:51:03.999Z,11.80
2023-03-10T17:53:31.503Z,11.80
2023-03-10T18:00:26.875Z,11.70
2023-03-10T18:02:54.035Z,11.70
2023-03-10T18:05:25.026Z,11.60
2023-03-10T18:07:53.819Z,11.40
2023-03-10T18:14:47.514Z,11.00
2023-03-10T18:17:14.749Z,10.80
2023-03-10T18:19:41.850Z,10.60
2023-03-10T18:22:09.408Z,10.40
2023-03-10T18:24:38.241Z,10.40
2023-03-10T18:27:05.555Z,10.50
2023-03-10T18:29:32.607Z,10.50
2023-03-10T18:31:59.680Z,10.40
2023-03-10T18:34:26.794Z,10.30
2023-03-10T18:36:53.931Z,10.30
2023-03-10T18:39:21.199Z,10.30
2023-03-10T18:41:48.487Z,10.30
2023-03-10T18:44:15.497Z,10.20
2023-03-10T18:49:33.056Z,10.30
2023-03-10T18:52:00.855Z,10.30
2023-03-10T18:54:30.694Z,10.30
2023-03-10T18:56:59.614Z,10.30
2023-03-10T18:59:28.651Z,10.30
2023-03-10T19:01:55.819Z,10.20
2023-03-10T19:04:23.009Z,10.10
2023-03-10T19:06:50.342Z,10.00
2023-03-10T19:09:19.420Z,9.90
2023-03-10T19:11:48.220Z,9.90
2023-03-10T19:14:15.529Z,9.90
2023-03-10T19:16:44.276Z,9.90
2023-03-10T19:19:11.428Z,9.90
2023-03-10T19:21:39.344Z,9.90
2023-03-10T19:24:06.868Z,9.90
2023-03-10T19:26:34.424Z,9.90
2023-03-10T19:29:01.963Z,9.90
2023-03-10T19:31:29.196Z,9.80
2023-03-10T19:33:56.274Z,9.80
2023-03-10T19:36:26.786Z,9.70
2023-03-10T19:38:54.009Z,9.80
2023-03-10T19:41:21.464Z,9.80
2023-03-10T19:43:49.267Z,9.80
2023-03-10T19:46:17.315Z,9.80
2023-03-10T19:48:45.724Z,9.80
2023-03-10T19:51:22.067Z,9.80
2023-03-10T19:53:52.293Z,9.80
2023-03-10T19:56:20.646Z,9.80
2023-03-10T20:03:26.468Z,9.70
2023-03-10T20:05:54.752Z,9.60
2023-03-10T20:08:23.617Z,9.60
2023-03-10T20:10:51.795Z,9.50
2023-03-10T20:17:46.680Z,9.50
2023-03-10T20:21:02.199Z,9.50
2023-03-10T20:23:35.445Z,9.50
2023-03-10T20:26:31.323Z,9.50
2023-03-10T20:29:27.815Z,9.60
2023-03-10T20:32:01.657Z,9.60
2023-03-10T20:34:29.334Z,9.60
2023-03-10T20:37:07.789Z,9.60
2023-03-10T20:39:48.212Z,9.60
2023-03-10T20:46:58.419Z,9.50
2023-03-10T20:49:29.449Z,9.50
2023-03-10T20:51:56.752Z,9.50
2023-03-10T20:54:35.584Z,9.50
2023-03-10T20:57:16.605Z,9.50
2023-03-10T20:59:45.529Z,9.50
2023-03-10T21:02:23.439Z,9.50
2023-03-10T21:04:59.716Z,9.50
2023-03-10T21:07:27.177Z,9.40
2023-03-10T21:09:56.115Z,9.40
2023-03-10T21:12:26.322Z,9.40
2023-03-10T21:14:54.699Z,9.40
2023-03-10T21:17:23.128Z,9.40
2023-03-10T21:19:50.700Z,9.40
2023-03-10T21:22:17.783Z,9.40
2023-03-10T21:24:44.995Z,9.40
2023-03-10T21:27:12.523Z,9.40
2023-03-10T21:29:40.471Z,9.30
2023-03-10T21:32:07.678Z,9.30
2023-03-10T21:34:38.678Z,9.30
2023-03-10T21:37:08.643Z,9.30
2023-03-10T21:39:35.973Z,9.40
2023-03-10T21:42:03.180Z,9.30
2023-03-10T21:49:09.129Z,9.40
2023-03-10T21:51:36.387Z,9.40
2023-03-10T21:54:04.382Z,9.30
2023-03-10T21:56:31.858Z,9.30
2023-03-10T21:59:08.005Z,9.30
2023-03-10T22:01:35.502Z,9.30
2023-03-10T22:04:04.809Z,9.40
2023-03-10T22:06:35.321Z,9.40
2023-03-10T22:09:02.638Z,9.40
2023-03-10T22:11:36.349Z,9.30
2023-03-10T22:14:03.829Z,9.30
2023-03-10T22:16:34.292Z,9.30
2023-03-10T22:19:04.869Z,9.30
2023-03-10T22:21:32.292Z,9.30
2023-03-10T22:24:00.158Z,9.30
2023-03-10T22:26:27.367Z,9.30
2023-03-10T22:28:54.574Z,9.30
2023-03-10T22:31:22.345Z,9.30
2023-03-10T22:33:49.407Z,9.30
2023-03-10T22:36:18.543Z,9.30
2023-03-10T22:38:45.597Z,9.30
2023-03-10T22:41:13.616Z,9.20
2023-03-10T22:43:41.326Z,9.20
2023-03-10T22:46:13.893Z,9.20
2023-03-10T22:48:42.114Z,9.10
2023-03-10T22:51:12.161Z,9.10
2023-03-10T22:53:41.626Z,9.10
2023-03-10T22:56:08.957Z,9.10
2023-03-10T22:58:37.695Z,9.00
2023-03-10T23:01:05.155Z,9.00
2023-03-10T23:03:33.918Z,9.00
2023-03-10T23:06:06.509Z,9.00
2023-03-10T23:08:36.181Z,9.00
2023-03-10T23:11:03.755Z,9.00
2023-03-10T23:13:30.833Z,9.10
2023-03-10T23:16:00.184Z,9.10
2023-03-10T23:18:27.634Z,9.00
2023-03-10T23:20:54.753Z,9.00
2023-03-10T23:23:21.990Z,9.00
2023-03-10T23:25:51.078Z,8.90
2023-03-10T23:28:20.384Z,8.90
2023-03-10T23:35:18.638Z,8.80
2023-03-10T23:37:45.797Z,8.90
2023-03-10T23:40:15.985Z,8.90
2023-03-10T23:42:43.987Z,8.90
2023-03-10T23:45:16.970Z,8.90
2023-03-10T23:47:45.655Z,8.90
2023-03-10T23:50:18.041Z,9.00
2023-03-10T23:52:45.429Z,9.00
2023-03-10T23:55:15.979Z,9.00
2023-03-10T23:57:43.009Z,9.10
